sensor_id;sensor_type;location;lat;lon;timestamp;temperature;humidity
19232;DHT22;9750;48.730;10.294;2023-12-07T00:00:09;3.90;99.90
19232;DHT22;9750;48.730;10.294;2023-12-07T00:02:36;3.80;99.90
19232;DHT22;9750;48.730;10.294;2023-12-07T00:05:04;3.80;99.90
19232;DHT22;9750;48.730;10.294;2023-12-07T00:07:31;3.80;99.90
19232;DHT22;9750;48.730;10.294;2023-12-07T00:09:59;3.80;99.90
19232;DHT22;9750;48.730;10.294;2023-12-07T00:12:26;3.80;99.90
19232;DHT22;9750;48.730;10.294;2023-12-07T00:14:53;3.80;99.90
19232;DHT22;9750;48.730;10.294;2023-12-07T00:17:22;3.80;99.90
19232;DHT22;9750;48.730;10.294;2023-12-07T00:19:50;3.80;99.90
19232;DHT22;9750;48.730;10.294;2023-12-07T00:22:19;3.80;99.90
19232;DHT22;9750;48.730;10.294;2023-12-07T00:24:46;3.70;99.90
19232;DHT22;9750;48.730;10.294;2023-12-07T00:27:14;3.70;99.90
19232;DHT22;9750;48.730;10.294;2023-12-07T00:29:41;3.70;99.90
19232;DHT22;9750;48.730;10.294;2023-12-07T00:32:08;3.70;99.90
19232;DHT22;9750;48.730;10.294;2023-12-07T00:34:37;3.80;99.90
19232;DHT22;9750;48.730;10.294;2023-12-07T00:37:04;3.80;99.90
19232;DHT22;9750;48.730;10.294;2023-12-07T00:39:32;3.70;99.90
19232;DHT22;9750;48.730;10.294;2023-12-07T00:42:00;3.70;99.90
19232;DHT22;9750;48.730;10.294;2023-12-07T00:44:27;3.70;99.90
19232;DHT22;9750;48.730;10.294;2023-12-07T00:46:54;3.80;99.90
19232;DHT22;9750;48.730;10.294;2023-12-07T00:49:21;3.70;99.90
19232;DHT22;9750;48.730;10.294;2023-12-07T00:51:50;3.80;99.90
19232;DHT22;9750;48.730;10.294;2023-12-07T00:54:17;3.80;99.90
19232;DHT22;9750;48.730;10.294;2023-12-07T00:56:45;3.80;99.90
19232;DHT22;9750;48.730;10.294;2023-12-07T00:59:12;3.70;99.90
19232;DHT22;9750;48.730;10.294;2023-12-07T01:01:39;3.70;99.90
19232;DHT22;9750;48.730;10.294;2023-12-07T01:04:06;3.80;99.90
19232;DHT22;9750;48.730;10.294;2023-12-07T01:06:33;3.80;99.90
19232;DHT22;9750;48.730;10.294;2023-12-07T01:09:02;3.70;99.90
19232;DHT22;9750;48.730;10.294;2023-12-07T01:11:30;3.70;99.90
19232;DHT22;9750;48.730;10.294;2023-12-07T01:13:57;3.70;99.90
19232;DHT22;9750;48.730;10.294;2023-12-07T01:16:24;3.70;99.90
19232;DHT22;9750;48.730;10.294;2023-12-07T01:18:52;3.80;99.90
19232;DHT22;9750;48.730;10.294;2023-12-07T01:21:19;3.70;99.90
19232;DHT22;9750;48.730;10.294;2023-12-07T01:23:46;3.80;99.90
19232;DHT22;9750;48.730;10.294;2023-12-07T01:26:15;3.70;99.90
19232;DHT22;9750;48.730;10.294;2023-12-07T01:28:42;3.70;99.90
19232;DHT22;9750;48.730;10.294;2023-12-07T01:31:09;3.70;99.90
19232;DHT22;9750;48.730;10.294;2023-12-07T01:33:37;3.70;99.90
19232;DHT22;9750;48.730;10.294;2023-12-07T01:36:04;3.70;99.90
19232;DHT22;9750;48.730;10.294;2023-12-07T01:38:32;3.70;99.90
19232;DHT22;9750;48.730;10.294;2023-12-07T01:40:59;3.70;99.90
19232;DHT22;9750;48.730;10.294;2023-12-07T01:43:28;3.70;99.90
19232;DHT22;9750;48.730;10.294;2023-12-07T01:45:57;3.60;99.90
19232;DHT22;9750;48.730;10.294;2023-12-07T01:48:25;3.70;99.90
19232;DHT22;9750;48.730;10.294;2023-12-07T01:50:53;3.60;99.90
19232;DHT22;9750;48.730;10.294;2023-12-07T01:53:21;3.60;99.80
19232;DHT22;9750;48.730;10.294;2023-12-07T01:55:51;3.60;99.60
19232;DHT22;9750;48.730;10.294;2023-12-07T01:58:19;3.60;99.60
19232;DHT22;9750;48.730;10.294;2023-12-07T02:00:48;3.60;99.60
19232;DHT22;9750;48.730;10.294;2023-12-07T02:03:17;3.60;99.70
19232;DHT22;9750;48.730;10.294;2023-12-07T02:05:47;3.60;99.50
19232;DHT22;9750;48.730;10.294;2023-12-07T02:08:15;3.60;99.40
19232;DHT22;9750;48.730;10.294;2023-12-07T02:10:42;3.60;99.40
19232;DHT22;9750;48.730;10.294;2023-12-07T02:13:10;3.60;99.30
19232;DHT22;9750;48.730;10.294;2023-12-07T02:15:37;3.60;99.40
19232;DHT22;9750;48.730;10.294;2023-12-07T02:18:13;3.60;99.40
19232;DHT22;9750;48.730;10.294;2023-12-07T02:20:45;3.60;99.40
19232;DHT22;9750;48.730;10.294;2023-12-07T02:23:15;3.60;99.30
19232;DHT22;9750;48.730;10.294;2023-12-07T02:29:06;3.60;99.60
19232;DHT22;9750;48.730;10.294;2023-12-07T02:31:34;3.60;99.70
19232;DHT22;9750;48.730;10.294;2023-12-07T02:34:01;3.60;99.60
19232;DHT22;9750;48.730;10.294;2023-12-07T02:36:29;3.60;99.90
19232;DHT22;9750;48.730;10.294;2023-12-07T02:38:58;3.50;99.90
19232;DHT22;9750;48.730;10.294;2023-12-07T02:41:27;3.50;99.70
19232;DHT22;9750;48.730;10.294;2023-12-07T02:43:55;3.50;99.60
19232;DHT22;9750;48.730;10.294;2023-12-07T02:46:24;3.50;99.60
19232;DHT22;9750;48.730;10.294;2023-12-07T02:48:52;3.50;99.60
19232;DHT22;9750;48.730;10.294;2023-12-07T02:51:19;3.50;99.60
19232;DHT22;9750;48.730;10.294;2023-12-07T02:53:46;3.50;99.80
19232;DHT22;9750;48.730;10.294;2023-12-07T02:59:36;3.50;99.70
19232;DHT22;9750;48.730;10.294;2023-12-07T03:02:04;3.50;99.50
19232;DHT22;9750;48.730;10.294;2023-12-07T03:04:32;3.50;99.90
19232;DHT22;9750;48.730;10.294;2023-12-07T03:06:59;3.50;99.60
19232;DHT22;9750;48.730;10.294;2023-12-07T03:09:26;3.50;99.70
19232;DHT22;9750;48.730;10.294;2023-12-07T03:11:53;3.50;99.80
19232;DHT22;9750;48.730;10.294;2023-12-07T03:14:21;3.40;99.80
19232;DHT22;9750;48.730;10.294;2023-12-07T03:16:48;3.50;99.90
19232;DHT22;9750;48.730;10.294;2023-12-07T03:19:16;3.50;99.90
19232;DHT22;9750;48.730;10.294;2023-12-07T03:21:44;3.50;99.90
19232;DHT22;9750;48.730;10.294;2023-12-07T03:24:11;3.50;99.70
19232;DHT22;9750;48.730;10.294;2023-12-07T03:26:38;3.50;99.50
19232;DHT22;9750;48.730;10.294;2023-12-07T03:29:07;3.50;99.70
19232;DHT22;9750;48.730;10.294;2023-12-07T03:31:34;3.50;99.90
19232;DHT22;9750;48.730;10.294;2023-12-07T03:34:01;3.50;99.90
19232;DHT22;9750;48.730;10.294;2023-12-07T03:36:32;3.50;99.80
19232;DHT22;9750;48.730;10.294;2023-12-07T03:38:59;3.50;99.90
19232;DHT22;9750;48.730;10.294;2023-12-07T03:41:28;3.50;99.90
19232;DHT22;9750;48.730;10.294;2023-12-07T03:43:55;3.50;99.90
19232;DHT22;9750;48.730;10.294;2023-12-07T03:46:23;3.40;99.90
19232;DHT22;9750;48.730;10.294;2023-12-07T03:48:50;3.40;99.90
19232;DHT22;9750;48.730;10.294;2023-12-07T03:51:17;3.40;99.90
19232;DHT22;9750;48.730;10.294;2023-12-07T03:53:46;3.40;99.90
19232;DHT22;9750;48.730;10.294;2023-12-07T03:56:39;3.40;99.80
19232;DHT22;9750;48.730;10.294;2023-12-07T03:59:07;3.40;99.90
19232;DHT22;9750;48.730;10.294;2023-12-07T04:01:34;3.40;99.90
19232;DHT22;9750;48.730;10.294;2023-12-07T04:04:01;3.40;99.60
19232;DHT22;9750;48.730;10.294;2023-12-07T04:06:30;3.40;99.50
19232;DHT22;9750;48.730;10.294;2023-12-07T04:08:58;3.40;99.60
19232;DHT22;9750;48.730;10.294;2023-12-07T04:11:26;3.40;99.50
19232;DHT22;9750;48.730;10.294;2023-12-07T04:13:53;3.40;99.70
19232;DHT22;9750;48.730;10.294;2023-12-07T04:16:20;3.40;99.80
19232;DHT22;9750;48.730;10.294;2023-12-07T04:18:47;3.40;99.60
19232;DHT22;9750;48.730;10.294;2023-12-07T04:21:15;3.40;99.60
19232;DHT22;9750;48.730;10.294;2023-12-07T04:23:42;3.50;99.40
19232;DHT22;9750;48.730;10.294;2023-12-07T04:26:11;3.40;99.70
19232;DHT22;9750;48.730;10.294;2023-12-07T04:28:38;3.50;99.60
19232;DHT22;9750;48.730;10.294;2023-12-07T04:31:05;3.40;99.60
19232;DHT22;9750;48.730;10.294;2023-12-07T04:33:32;3.40;99.90
19232;DHT22;9750;48.730;10.294;2023-12-07T04:36:00;3.40;99.90
19232;DHT22;9750;48.730;10.294;2023-12-07T04:38:27;3.40;99.90
19232;DHT22;9750;48.730;10.294;2023-12-07T04:40:55;3.40;99.90
19232;DHT22;9750;48.730;10.294;2023-12-07T04:43:23;3.40;99.90
19232;DHT22;9750;48.730;10.294;2023-12-07T04:45:51;3.50;99.90
19232;DHT22;9750;48.730;10.294;2023-12-07T04:48:18;3.50;99.90
19232;DHT22;9750;48.730;10.294;2023-12-07T04:50:45;3.40;99.90
19232;DHT22;9750;48.730;10.294;2023-12-07T04:53:13;3.50;99.90
19232;DHT22;9750;48.730;10.294;2023-12-07T04:55:40;3.50;99.90
19232;DHT22;9750;48.730;10.294;2023-12-07T04:58:11;3.50;99.90
19232;DHT22;9750;48.730;10.294;2023-12-07T05:00:40;3.40;99.90
19232;DHT22;9750;48.730;10.294;2023-12-07T05:03:07;3.40;99.90
19232;DHT22;9750;48.730;10.294;2023-12-07T05:05:34;3.40;99.90
19232;DHT22;9750;48.730;10.294;2023-12-07T05:08:02;3.50;99.90
19232;DHT22;9750;48.730;10.294;2023-12-07T05:10:29;3.50;99.90
19232;DHT22;9750;48.730;10.294;2023-12-07T05:12:56;3.50;99.90
19232;DHT22;9750;48.730;10.294;2023-12-07T05:15:23;3.40;99.90
19232;DHT22;9750;48.730;10.294;2023-12-07T05:17:52;3.50;99.90
19232;DHT22;9750;48.730;10.294;2023-12-07T05:20:20;3.50;99.90
19232;DHT22;9750;48.730;10.294;2023-12-07T05:22:50;3.50;99.90
19232;DHT22;9750;48.730;10.294;2023-12-07T05:25:17;3.50;99.90
19232;DHT22;9750;48.730;10.294;2023-12-07T05:27:44;3.50;99.90
19232;DHT22;9750;48.730;10.294;2023-12-07T05:30:12;3.40;99.90
19232;DHT22;9750;48.730;10.294;2023-12-07T05:32:39;3.40;99.80
19232;DHT22;9750;48.730;10.294;2023-12-07T05:35:08;3.40;99.90
19232;DHT22;9750;48.730;10.294;2023-12-07T05:37:36;3.50;99.90
19232;DHT22;9750;48.730;10.294;2023-12-07T05:40:04;3.50;99.90
19232;DHT22;9750;48.730;10.294;2023-12-07T05:42:32;3.50;99.90
19232;DHT22;9750;48.730;10.294;2023-12-07T05:44:59;3.50;99.90
19232;DHT22;9750;48.730;10.294;2023-12-07T05:47:27;3.50;99.90
19232;DHT22;9750;48.730;10.294;2023-12-07T05:49:54;3.40;99.90
19232;DHT22;9750;48.730;10.294;2023-12-07T05:52:24;3.40;99.90
19232;DHT22;9750;48.730;10.294;2023-12-07T05:54:52;3.50;99.90
19232;DHT22;9750;48.730;10.294;2023-12-07T05:57:19;3.40;99.90
19232;DHT22;9750;48.730;10.294;2023-12-07T05:59:46;3.40;99.90
19232;DHT22;9750;48.730;10.294;2023-12-07T06:02:14;3.40;99.90
19232;DHT22;9750;48.730;10.294;2023-12-07T06:04:41;3.40;99.90
19232;DHT22;9750;48.730;10.294;2023-12-07T06:07:08;3.40;99.90
19232;DHT22;9750;48.730;10.294;2023-12-07T06:09:37;3.40;99.90
19232;DHT22;9750;48.730;10.294;2023-12-07T06:12:04;3.40;99.90
19232;DHT22;9750;48.730;10.294;2023-12-07T06:14:32;3.40;99.90
19232;DHT22;9750;48.730;10.294;2023-12-07T06:16:59;3.40;99.90
19232;DHT22;9750;48.730;10.294;2023-12-07T06:19:26;3.40;99.90
19232;DHT22;9750;48.730;10.294;2023-12-07T06:21:54;3.40;99.90
19232;DHT22;9750;48.730;10.294;2023-12-07T06:24:21;3.40;99.90
19232;DHT22;9750;48.730;10.294;2023-12-07T06:26:51;3.40;99.90
19232;DHT22;9750;48.730;10.294;2023-12-07T06:29:19;3.40;99.90
19232;DHT22;9750;48.730;10.294;2023-12-07T06:31:46;3.40;99.90
19232;DHT22;9750;48.730;10.294;2023-12-07T06:34:13;3.30;99.90
19232;DHT22;9750;48.730;10.294;2023-12-07T06:36:40;3.30;99.90
19232;DHT22;9750;48.730;10.294;2023-12-07T06:39:09;3.30;99.90
19232;DHT22;9750;48.730;10.294;2023-12-07T06:41:37;3.30;99.90
19232;DHT22;9750;48.730;10.294;2023-12-07T06:44:06;3.30;99.90
19232;DHT22;9750;48.730;10.294;2023-12-07T06:46:34;3.30;99.90
19232;DHT22;9750;48.730;10.294;2023-12-07T06:49:01;3.20;99.90
19232;DHT22;9750;48.730;10.294;2023-12-07T06:51:28;3.20;99.90
19232;DHT22;9750;48.730;10.294;2023-12-07T06:53:55;3.20;99.90
19232;DHT22;9750;48.730;10.294;2023-12-07T06:56:23;3.10;99.90
19232;DHT22;9750;48.730;10.294;2023-12-07T06:58:51;3.10;99.90
19232;DHT22;9750;48.730;10.294;2023-12-07T07:01:19;3.10;99.90
19232;DHT22;9750;48.730;10.294;2023-12-07T07:03:46;3.10;99.90
19232;DHT22;9750;48.730;10.294;2023-12-07T07:06:35;3.10;99.90
19232;DHT22;9750;48.730;10.294;2023-12-07T07:09:03;3.10;99.90
19232;DHT22;9750;48.730;10.294;2023-12-07T07:11:31;3.00;99.90
19232;DHT22;9750;48.730;10.294;2023-12-07T07:13:58;3.00;99.80
19232;DHT22;9750;48.730;10.294;2023-12-07T07:16:27;3.00;99.90
19232;DHT22;9750;48.730;10.294;2023-12-07T07:18:54;3.00;99.20
19232;DHT22;9750;48.730;10.294;2023-12-07T07:21:21;3.00;99.20
19232;DHT22;9750;48.730;10.294;2023-12-07T07:23:48;2.90;99.30
19232;DHT22;9750;48.730;10.294;2023-12-07T07:26:24;2.90;99.80
19232;DHT22;9750;48.730;10.294;2023-12-07T07:28:51;2.90;99.90
19232;DHT22;9750;48.730;10.294;2023-12-07T07:31:19;2.90;99.80
19232;DHT22;9750;48.730;10.294;2023-12-07T07:33:47;2.90;99.80
19232;DHT22;9750;48.730;10.294;2023-12-07T07:36:15;2.90;99.70
19232;DHT22;9750;48.730;10.294;2023-12-07T07:38:42;2.90;99.10
19232;DHT22;9750;48.730;10.294;2023-12-07T07:41:11;2.90;98.90
19232;DHT22;9750;48.730;10.294;2023-12-07T07:43:38;2.90;99.00
19232;DHT22;9750;48.730;10.294;2023-12-07T07:46:06;2.90;99.30
19232;DHT22;9750;48.730;10.294;2023-12-07T07:48:34;2.90;99.80
19232;DHT22;9750;48.730;10.294;2023-12-07T07:51:04;2.90;99.60
19232;DHT22;9750;48.730;10.294;2023-12-07T07:53:32;2.90;99.30
19232;DHT22;9750;48.730;10.294;2023-12-07T07:55:59;2.80;98.90
19232;DHT22;9750;48.730;10.294;2023-12-07T07:58:26;2.80;99.00
19232;DHT22;9750;48.730;10.294;2023-12-07T08:00:53;2.80;98.80
19232;DHT22;9750;48.730;10.294;2023-12-07T08:03:21;2.80;98.90
19232;DHT22;9750;48.730;10.294;2023-12-07T08:05:48;2.80;99.20
19232;DHT22;9750;48.730;10.294;2023-12-07T08:08:17;2.70;99.00
19232;DHT22;9750;48.730;10.294;2023-12-07T08:10:44;2.80;99.20
19232;DHT22;9750;48.730;10.294;2023-12-07T08:13:11;2.70;99.20
19232;DHT22;9750;48.730;10.294;2023-12-07T08:15:39;2.80;99.50
19232;DHT22;9750;48.730;10.294;2023-12-07T08:18:06;2.80;99.10
19232;DHT22;9750;48.730;10.294;2023-12-07T08:20:33;2.70;99.20
19232;DHT22;9750;48.730;10.294;2023-12-07T08:23:00;2.80;98.50
19232;DHT22;9750;48.730;10.294;2023-12-07T08:28:51;2.70;99.00
19232;DHT22;9750;48.730;10.294;2023-12-07T08:31:19;2.80;99.30
19232;DHT22;9750;48.730;10.294;2023-12-07T08:33:48;2.80;99.00
19232;DHT22;9750;48.730;10.294;2023-12-07T08:36:23;2.80;99.20
19232;DHT22;9750;48.730;10.294;2023-12-07T08:38:51;2.90;98.90
19232;DHT22;9750;48.730;10.294;2023-12-07T08:41:18;2.90;98.70
19232;DHT22;9750;48.730;10.294;2023-12-07T08:43:45;2.90;98.70
19232;DHT22;9750;48.730;10.294;2023-12-07T08:46:14;2.90;98.60
19232;DHT22;9750;48.730;10.294;2023-12-07T08:48:41;2.90;98.60
19232;DHT22;9750;48.730;10.294;2023-12-07T08:51:09;2.90;98.80
19232;DHT22;9750;48.730;10.294;2023-12-07T08:53:37;2.80;98.10
19232;DHT22;9750;48.730;10.294;2023-12-07T08:56:05;2.80;98.80
19232;DHT22;9750;48.730;10.294;2023-12-07T08:58:32;2.80;99.00
19232;DHT22;9750;48.730;10.294;2023-12-07T09:01:14;2.70;98.60
19232;DHT22;9750;48.730;10.294;2023-12-07T09:03:43;2.50;99.20
19232;DHT22;9750;48.730;10.294;2023-12-07T09:06:10;2.50;99.90
19232;DHT22;9750;48.730;10.294;2023-12-07T09:08:37;2.50;99.90
19232;DHT22;9750;48.730;10.294;2023-12-07T09:11:04;2.50;99.60
19232;DHT22;9750;48.730;10.294;2023-12-07T09:13:32;2.60;99.60
19232;DHT22;9750;48.730;10.294;2023-12-07T09:15:59;2.60;99.70
19232;DHT22;9750;48.730;10.294;2023-12-07T09:18:26;2.60;99.40
19232;DHT22;9750;48.730;10.294;2023-12-07T09:21:01;2.70;98.80
19232;DHT22;9750;48.730;10.294;2023-12-07T09:23:45;2.70;98.80
19232;DHT22;9750;48.730;10.294;2023-12-07T09:26:24;2.70;98.80
19232;DHT22;9750;48.730;10.294;2023-12-07T09:28:53;2.80;98.60
19232;DHT22;9750;48.730;10.294;2023-12-07T09:31:20;2.90;98.70
19232;DHT22;9750;48.730;10.294;2023-12-07T09:33:47;2.90;98.70
19232;DHT22;9750;48.730;10.294;2023-12-07T09:36:18;3.00;98.70
19232;DHT22;9750;48.730;10.294;2023-12-07T09:38:47;3.00;98.60
19232;DHT22;9750;48.730;10.294;2023-12-07T09:41:14;3.10;98.60
19232;DHT22;9750;48.730;10.294;2023-12-07T09:43:42;3.10;98.50
19232;DHT22;9750;48.730;10.294;2023-12-07T09:46:09;3.20;98.40
19232;DHT22;9750;48.730;10.294;2023-12-07T09:48:49;3.20;98.50
19232;DHT22;9750;48.730;10.294;2023-12-07T09:51:23;3.30;98.30
19232;DHT22;9750;48.730;10.294;2023-12-07T09:53:58;3.40;98.20
19232;DHT22;9750;48.730;10.294;2023-12-07T09:56:26;3.40;98.20
19232;DHT22;9750;48.730;10.294;2023-12-07T09:58:53;3.40;98.20
19232;DHT22;9750;48.730;10.294;2023-12-07T10:01:20;3.50;98.30
19232;DHT22;9750;48.730;10.294;2023-12-07T10:03:47;3.60;98.50
19232;DHT22;9750;48.730;10.294;2023-12-07T10:06:15;3.70;98.40
19232;DHT22;9750;48.730;10.294;2023-12-07T10:08:44;3.80;98.40
19232;DHT22;9750;48.730;10.294;2023-12-07T10:11:12;3.80;98.50
19232;DHT22;9750;48.730;10.294;2023-12-07T10:13:40;3.80;98.40
19232;DHT22;9750;48.730;10.294;2023-12-07T10:16:10;3.80;98.50
19232;DHT22;9750;48.730;10.294;2023-12-07T10:18:44;3.80;98.50
19232;DHT22;9750;48.730;10.294;2023-12-07T10:21:12;3.80;98.60
19232;DHT22;9750;48.730;10.294;2023-12-07T10:23:42;3.80;98.60
19232;DHT22;9750;48.730;10.294;2023-12-07T10:26:13;3.70;98.70
19232;DHT22;9750;48.730;10.294;2023-12-07T10:28:43;3.80;98.50
19232;DHT22;9750;48.730;10.294;2023-12-07T10:31:12;3.80;98.60
19232;DHT22;9750;48.730;10.294;2023-12-07T10:33:39;3.80;98.70
19232;DHT22;9750;48.730;10.294;2023-12-07T10:36:09;3.80;98.60
19232;DHT22;9750;48.730;10.294;2023-12-07T10:38:37;3.90;98.50
19232;DHT22;9750;48.730;10.294;2023-12-07T10:41:09;3.90;98.40
19232;DHT22;9750;48.730;10.294;2023-12-07T10:43:43;3.90;98.30
19232;DHT22;9750;48.730;10.294;2023-12-07T10:46:14;3.90;98.30
19232;DHT22;9750;48.730;10.294;2023-12-07T10:48:44;3.90;98.30
19232;DHT22;9750;48.730;10.294;2023-12-07T10:51:17;3.90;98.20
19232;DHT22;9750;48.730;10.294;2023-12-07T10:53:48;4.00;98.10
19232;DHT22;9750;48.730;10.294;2023-12-07T10:56:50;4.00;98.30
19232;DHT22;9750;48.730;10.294;2023-12-07T10:59:18;4.00;97.50
19232;DHT22;9750;48.730;10.294;2023-12-07T11:01:47;4.00;97.90
19232;DHT22;9750;48.730;10.294;2023-12-07T11:04:15;4.00;98.10
19232;DHT22;9750;48.730;10.294;2023-12-07T11:06:46;4.00;97.90
19232;DHT22;9750;48.730;10.294;2023-12-07T11:09:19;4.10;97.80
19232;DHT22;9750;48.730;10.294;2023-12-07T11:11:54;4.10;97.90
19232;DHT22;9750;48.730;10.294;2023-12-07T11:14:23;4.20;97.90
19232;DHT22;9750;48.730;10.294;2023-12-07T11:16:52;4.30;97.90
19232;DHT22;9750;48.730;10.294;2023-12-07T11:19:46;4.30;97.70
19232;DHT22;9750;48.730;10.294;2023-12-07T11:22:13;4.40;97.70
19232;DHT22;9750;48.730;10.294;2023-12-07T11:24:56;4.40;97.50
19232;DHT22;9750;48.730;10.294;2023-12-07T11:27:31;4.50;97.70
19232;DHT22;9750;48.730;10.294;2023-12-07T11:29:59;4.50;98.00
19232;DHT22;9750;48.730;10.294;2023-12-07T11:32:27;4.60;97.90
19232;DHT22;9750;48.730;10.294;2023-12-07T11:34:58;4.60;97.70
19232;DHT22;9750;48.730;10.294;2023-12-07T11:40:34;4.60;97.60
19232;DHT22;9750;48.730;10.294;2023-12-07T11:43:03;4.60;97.70
19232;DHT22;9750;48.730;10.294;2023-12-07T11:45:41;4.50;97.70
19232;DHT22;9750;48.730;10.294;2023-12-07T11:48:13;4.50;97.50
19232;DHT22;9750;48.730;10.294;2023-12-07T11:50:56;4.60;97.10
19232;DHT22;9750;48.730;10.294;2023-12-07T11:53:24;4.60;96.90
19232;DHT22;9750;48.730;10.294;2023-12-07T11:55:51;4.60;97.00
19232;DHT22;9750;48.730;10.294;2023-12-07T11:58:20;4.60;97.30
19232;DHT22;9750;48.730;10.294;2023-12-07T12:00:48;4.70;97.20
19232;DHT22;9750;48.730;10.294;2023-12-07T12:03:15;4.70;97.20
19232;DHT22;9750;48.730;10.294;2023-12-07T12:05:42;4.70;97.20
19232;DHT22;9750;48.730;10.294;2023-12-07T12:08:11;4.70;97.20
19232;DHT22;9750;48.730;10.294;2023-12-07T12:10:39;4.70;97.20
19232;DHT22;9750;48.730;10.294;2023-12-07T12:13:08;4.70;97.30
19232;DHT22;9750;48.730;10.294;2023-12-07T12:15:45;4.70;97.20
19232;DHT22;9750;48.730;10.294;2023-12-07T12:18:13;4.80;97.20
19232;DHT22;9750;48.730;10.294;2023-12-07T12:20:43;4.70;97.10
19232;DHT22;9750;48.730;10.294;2023-12-07T12:23:11;4.80;97.00
19232;DHT22;9750;48.730;10.294;2023-12-07T12:25:39;4.80;96.90
19232;DHT22;9750;48.730;10.294;2023-12-07T12:28:07;4.80;96.70
19232;DHT22;9750;48.730;10.294;2023-12-07T12:30:35;4.80;96.70
19232;DHT22;9750;48.730;10.294;2023-12-07T12:33:04;4.80;96.80
19232;DHT22;9750;48.730;10.294;2023-12-07T12:38:21;4.70;96.60
19232;DHT22;9750;48.730;10.294;2023-12-07T12:40:51;4.70;96.70
19232;DHT22;9750;48.730;10.294;2023-12-07T12:43:19;4.70;96.90
19232;DHT22;9750;48.730;10.294;2023-12-07T12:45:47;4.70;96.70
19232;DHT22;9750;48.730;10.294;2023-12-07T12:48:16;4.70;96.60
19232;DHT22;9750;48.730;10.294;2023-12-07T12:50:44;4.70;96.60
19232;DHT22;9750;48.730;10.294;2023-12-07T12:53:11;4.70;96.60
19232;DHT22;9750;48.730;10.294;2023-12-07T12:55:41;4.70;96.70
19232;DHT22;9750;48.730;10.294;2023-12-07T12:58:09;4.70;96.30
19232;DHT22;9750;48.730;10.294;2023-12-07T13:00:38;4.70;96.00
19232;DHT22;9750;48.730;10.294;2023-12-07T13:03:07;4.70;96.00
19232;DHT22;9750;48.730;10.294;2023-12-07T13:05:42;4.70;96.00
19232;DHT22;9750;48.730;10.294;2023-12-07T13:08:09;4.70;96.00
19232;DHT22;9750;48.730;10.294;2023-12-07T13:10:36;4.70;96.00
19232;DHT22;9750;48.730;10.294;2023-12-07T13:13:04;4.60;96.20
19232;DHT22;9750;48.730;10.294;2023-12-07T13:15:32;4.60;96.30
19232;DHT22;9750;48.730;10.294;2023-12-07T13:18:00;4.60;96.10
19232;DHT22;9750;48.730;10.294;2023-12-07T13:20:27;4.50;95.70
19232;DHT22;9750;48.730;10.294;2023-12-07T13:22:56;4.50;95.70
19232;DHT22;9750;48.730;10.294;2023-12-07T13:25:23;4.50;95.80
19232;DHT22;9750;48.730;10.294;2023-12-07T13:27:50;4.40;95.70
19232;DHT22;9750;48.730;10.294;2023-12-07T13:30:18;4.40;95.80
19232;DHT22;9750;48.730;10.294;2023-12-07T13:32:45;4.40;96.30
19232;DHT22;9750;48.730;10.294;2023-12-07T13:35:13;4.30;96.40
19232;DHT22;9750;48.730;10.294;2023-12-07T13:37:41;4.30;96.20
19232;DHT22;9750;48.730;10.294;2023-12-07T13:40:10;4.20;95.70
19232;DHT22;9750;48.730;10.294;2023-12-07T13:42:37;4.20;95.60
19232;DHT22;9750;48.730;10.294;2023-12-07T13:48:27;4.10;94.50
19232;DHT22;9750;48.730;10.294;2023-12-07T13:50:54;4.10;94.40
19232;DHT22;9750;48.730;10.294;2023-12-07T13:53:21;4.10;94.50
19232;DHT22;9750;48.730;10.294;2023-12-07T13:55:50;4.00;94.80
19232;DHT22;9750;48.730;10.294;2023-12-07T13:58:17;4.00;95.00
19232;DHT22;9750;48.730;10.294;2023-12-07T14:00:45;4.00;95.00
19232;DHT22;9750;48.730;10.294;2023-12-07T14:03:12;3.90;95.00
19232;DHT22;9750;48.730;10.294;2023-12-07T14:05:39;3.90;94.90
19232;DHT22;9750;48.730;10.294;2023-12-07T14:08:07;3.80;94.60
19232;DHT22;9750;48.730;10.294;2023-12-07T14:10:35;3.80;94.60
19232;DHT22;9750;48.730;10.294;2023-12-07T14:13:04;3.80;95.30
19232;DHT22;9750;48.730;10.294;2023-12-07T14:15:31;3.80;95.10
19232;DHT22;9750;48.730;10.294;2023-12-07T14:18:00;3.70;95.60
19232;DHT22;9750;48.730;10.294;2023-12-07T14:20:28;3.70;95.90
19232;DHT22;9750;48.730;10.294;2023-12-07T14:22:56;3.70;95.60
19232;DHT22;9750;48.730;10.294;2023-12-07T14:25:29;3.70;95.90
19232;DHT22;9750;48.730;10.294;2023-12-07T14:27:57;3.70;96.00
19232;DHT22;9750;48.730;10.294;2023-12-07T14:30:25;3.60;96.00
19232;DHT22;9750;48.730;10.294;2023-12-07T14:32:53;3.60;95.70
19232;DHT22;9750;48.730;10.294;2023-12-07T14:38:42;3.60;95.00
19232;DHT22;9750;48.730;10.294;2023-12-07T14:41:09;3.50;95.00
19232;DHT22;9750;48.730;10.294;2023-12-07T14:43:38;3.50;94.80
19232;DHT22;9750;48.730;10.294;2023-12-07T14:46:07;3.40;94.50
19232;DHT22;9750;48.730;10.294;2023-12-07T14:48:34;3.40;94.50
19232;DHT22;9750;48.730;10.294;2023-12-07T14:51:04;3.40;94.80
19232;DHT22;9750;48.730;10.294;2023-12-07T14:53:32;3.40;94.80
19232;DHT22;9750;48.730;10.294;2023-12-07T14:56:00;3.30;94.80
19232;DHT22;9750;48.730;10.294;2023-12-07T14:58:27;3.30;95.10
19232;DHT22;9750;48.730;10.294;2023-12-07T15:00:54;3.20;95.30
19232;DHT22;9750;48.730;10.294;2023-12-07T15:03:23;3.20;95.00
19232;DHT22;9750;48.730;10.294;2023-12-07T15:05:50;3.20;95.10
19232;DHT22;9750;48.730;10.294;2023-12-07T15:08:17;3.10;95.30
19232;DHT22;9750;48.730;10.294;2023-12-07T15:10:44;3.10;95.50
19232;DHT22;9750;48.730;10.294;2023-12-07T15:13:12;3.00;95.40
19232;DHT22;9750;48.730;10.294;2023-12-07T15:15:39;3.00;95.40
19232;DHT22;9750;48.730;10.294;2023-12-07T15:18:07;3.00;95.20
19232;DHT22;9750;48.730;10.294;2023-12-07T15:20:36;3.00;95.00
19232;DHT22;9750;48.730;10.294;2023-12-07T15:23:03;3.00;94.80
19232;DHT22;9750;48.730;10.294;2023-12-07T15:25:31;2.90;95.00
19232;DHT22;9750;48.730;10.294;2023-12-07T15:27:58;2.90;95.00
19232;DHT22;9750;48.730;10.294;2023-12-07T15:30:25;2.80;95.00
19232;DHT22;9750;48.730;10.294;2023-12-07T15:32:55;2.80;95.00
19232;DHT22;9750;48.730;10.294;2023-12-07T15:35:22;2.80;94.80
19232;DHT22;9750;48.730;10.294;2023-12-07T15:37:51;2.70;94.70
19232;DHT22;9750;48.730;10.294;2023-12-07T15:40:18;2.70;94.70
19232;DHT22;9750;48.730;10.294;2023-12-07T15:42:45;2.60;94.90
19232;DHT22;9750;48.730;10.294;2023-12-07T15:45:22;2.60;94.90
19232;DHT22;9750;48.730;10.294;2023-12-07T15:47:49;2.60;95.00
19232;DHT22;9750;48.730;10.294;2023-12-07T15:50:18;2.60;95.30
19232;DHT22;9750;48.730;10.294;2023-12-07T15:52:45;2.50;95.30
19232;DHT22;9750;48.730;10.294;2023-12-07T15:55:14;2.50;95.30
19232;DHT22;9750;48.730;10.294;2023-12-07T15:57:42;2.50;95.30
19232;DHT22;9750;48.730;10.294;2023-12-07T16:00:10;2.50;95.30
19232;DHT22;9750;48.730;10.294;2023-12-07T16:02:38;2.50;95.40
19232;DHT22;9750;48.730;10.294;2023-12-07T16:05:05;2.50;95.40
19232;DHT22;9750;48.730;10.294;2023-12-07T16:07:34;2.40;95.30
19232;DHT22;9750;48.730;10.294;2023-12-07T16:10:05;2.40;95.40
19232;DHT22;9750;48.730;10.294;2023-12-07T16:12:35;2.40;95.30
19232;DHT22;9750;48.730;10.294;2023-12-07T16:15:04;2.40;95.40